createdAt,value
2022-11-03T00:01:55.529Z,6.70
2022-11-03T00:04:25.146Z,6.70
2022-11-03T00:06:56.728Z,6.80
2022-11-03T00:09:27.709Z,7.00
2022-11-03T00:11:56.740Z,7.00
2022-11-03T00:14:25.846Z,7.00
2022-11-03T00:16:55.686Z,7.00
2022-11-03T00:19:24.771Z,7.00
2022-11-03T00:21:55.211Z,7.00
2022-11-03T00:24:24.677Z,7.00
2022-11-03T00:26:53.643Z,7.00
2022-11-03T00:29:22.653Z,6.80
2022-11-03T00:31:51.783Z,6.80
2022-11-03T00:34:20.715Z,6.70
2022-11-03T00:36:49.938Z,6.60
2022-11-03T00:39:20.394Z,6.60
2022-11-03T00:41:49.362Z,6.60
2022-11-03T00:44:18.299Z,6.60
2022-11-03T00:46:47.384Z,6.70
2022-11-03T00:49:16.593Z,6.70
2022-11-03T00:51:45.553Z,6.70
2022-11-03T00:54:14.562Z,6.70
2022-11-03T00:56:45.447Z,6.70
2022-11-03T00:59:14.526Z,6.70
2022-11-03T01:01:47.820Z,6.70
2022-11-03T01:04:35.755Z,6.80
2022-11-03T01:07:07.786Z,6.70
2022-11-03T01:09:40.678Z,6.60
2022-11-03T01:12:14.491Z,6.60
2022-11-03T01:14:46.461Z,6.50
2022-11-03T01:17:18.708Z,6.30
2022-11-03T01:19:48.686Z,6.40
2022-11-03T01:22:19.579Z,6.30
2022-11-03T01:24:49.486Z,6.30
2022-11-03T01:27:22.602Z,6.20
2022-11-03T01:29:52.087Z,6.20
2022-11-03T01:32:21.088Z,6.20
2022-11-03T01:34:50.026Z,6.20
2022-11-03T01:37:19.368Z,6.20
2022-11-03T01:39:48.419Z,6.20
2022-11-03T01:42:18.639Z,6.30
2022-11-03T01:44:50.478Z,6.30
2022-11-03T01:47:28.950Z,6.30
2022-11-03T01:50:04.853Z,6.40
2022-11-03T01:52:39.273Z,6.50
2022-11-03T01:55:14.982Z,6.50
2022-11-03T01:57:56.164Z,6.50
2022-11-03T02:00:25.259Z,6.50
2022-11-03T02:02:55.702Z,6.60
2022-11-03T02:05:28.721Z,6.60
2022-11-03T02:10:41.394Z,6.50
2022-11-03T02:13:19.926Z,6.50
2022-11-03T02:15:51.317Z,6.50
2022-11-03T02:18:25.831Z,6.50
2022-11-03T02:21:09.945Z,6.50
2022-11-03T02:23:49.206Z,6.40
2022-11-03T02:26:20.260Z,6.50
2022-11-03T02:28:49.442Z,6.40
2022-11-03T02:31:28.666Z,6.40
2022-11-03T02:34:07.489Z,6.30
2022-11-03T02:36:47.024Z,6.30
2022-11-03T02:39:22.834Z,6.30
2022-11-03T02:41:58.735Z,6.40
2022-11-03T02:44:30.117Z,6.50
2022-11-03T02:47:03.011Z,6.60
2022-11-03T02:49:32.175Z,6.60
2022-11-03T02:52:02.277Z,6.60
2022-11-03T02:54:38.593Z,6.60
2022-11-03T02:57:18.664Z,6.70
2022-11-03T02:59:54.991Z,6.80
2022-11-03T03:02:34.829Z,6.90
2022-11-03T03:05:10.329Z,6.90
2022-11-03T03:07:46.365Z,6.90
2022-11-03T03:10:19.574Z,6.90
2022-11-03T03:12:54.133Z,7.00
2022-11-03T03:15:35.948Z,7.00
2022-11-03T03:18:21.586Z,7.10
2022-11-03T03:21:01.465Z,7.10
2022-11-03T03:23:37.605Z,7.20
2022-11-03T03:26:16.177Z,7.20
2022-11-03T03:28:54.991Z,7.20
2022-11-03T03:31:27.996Z,7.20
2022-11-03T03:34:04.916Z,7.20
2022-11-03T03:36:45.020Z,7.20
2022-11-03T03:39:18.316Z,7.30
2022-11-03T03:41:50.123Z,7.20
2022-11-03T03:44:22.476Z,7.20
2022-11-03T03:46:59.130Z,7.10
2022-11-03T03:49:28.509Z,7.00
2022-11-03T03:51:58.042Z,7.00
2022-11-03T03:54:27.168Z,7.00
2022-11-03T03:57:02.761Z,7.00
2022-11-03T03:59:33.403Z,7.00
2022-11-03T04:02:03.255Z,7.00
2022-11-03T04:04:32.257Z,7.00
2022-11-03T04:07:18.612Z,6.90
2022-11-03T04:09:47.694Z,7.00
2022-11-03T04:12:34.218Z,7.00
2022-11-03T04:15:22.988Z,7.00
2022-11-03T04:18:10.523Z,6.90
2022-11-03T04:20:56.866Z,6.90
2022-11-03T04:23:25.912Z,6.80
2022-11-03T04:25:58.093Z,6.90
2022-11-03T04:28:28.620Z,6.90
2022-11-03T04:31:01.415Z,6.90
2022-11-03T04:33:31.434Z,6.90
2022-11-03T04:36:04.719Z,6.90
2022-11-03T04:38:33.757Z,6.90
2022-11-03T04:41:03.819Z,7.00
2022-11-03T04:43:36.791Z,6.90
2022-11-03T04:46:10.769Z,6.90
2022-11-03T04:48:40.356Z,6.80
2022-11-03T04:51:21.738Z,6.70
2022-11-03T04:53:56.041Z,6.70
2022-11-03T04:56:26.750Z,6.80
2022-11-03T04:58:55.997Z,6.80
2022-11-03T05:01:27.476Z,6.80
2022-11-03T05:03:57.414Z,6.80
2022-11-03T05:06:31.055Z,6.90
2022-11-03T05:09:07.102Z,6.90
2022-11-03T05:11:39.567Z,7.00
2022-11-03T05:14:17.615Z,7.00
2022-11-03T05:16:48.671Z,7.00
2022-11-03T05:19:24.164Z,7.10
2022-11-03T05:21:56.283Z,7.10
2022-11-03T05:24:27.129Z,7.10
2022-11-03T05:26:59.343Z,7.00
2022-11-03T05:29:37.036Z,7.00
2022-11-03T05:32:16.229Z,6.90
2022-11-03T05:34:48.399Z,6.80
2022-11-03T05:37:36.750Z,6.60
2022-11-03T05:40:24.280Z,6.60
2022-11-03T05:42:58.736Z,6.70
2022-11-03T05:45:34.544Z,6.70
2022-11-03T05:48:15.632Z,6.60
2022-11-03T05:50:48.363Z,6.60
2022-11-03T05:53:32.380Z,6.60
2022-11-03T05:56:05.191Z,6.70
2022-11-03T05:58:41.065Z,6.70
2022-11-03T06:01:20.491Z,6.70
2022-11-03T06:03:52.036Z,6.60
2022-11-03T06:06:32.164Z,6.70
2022-11-03T06:09:04.972Z,6.70
2022-11-03T06:11:38.721Z,6.80
2022-11-03T06:14:24.008Z,6.80
2022-11-03T06:16:58.134Z,6.80
2022-11-03T06:19:34.358Z,6.80
2022-11-03T06:22:13.942Z,6.70
2022-11-03T06:24:44.145Z,6.60
2022-11-03T06:27:17.775Z,6.60
2022-11-03T06:29:52.549Z,6.70
2022-11-03T06:32:21.768Z,6.70
2022-11-03T06:34:55.265Z,6.70
2022-11-03T06:37:28.123Z,6.80
2022-11-03T06:40:31.920Z,6.80
2022-11-03T06:43:02.399Z,6.90
2022-11-03T06:45:32.091Z,7.00
2022-11-03T06:48:04.894Z,7.00
2022-11-03T06:50:44.600Z,7.00
2022-11-03T06:53:26.516Z,7.10
2022-11-03T06:55:57.206Z,7.20
2022-11-03T06:58:32.077Z,7.20
2022-11-03T07:01:17.827Z,7.20
2022-11-03T07:03:47.952Z,7.30
2022-11-03T07:06:24.993Z,7.30
2022-11-03T07:08:58.018Z,7.30
2022-11-03T07:11:30.284Z,7.30
2022-11-03T07:14:05.286Z,7.30
2022-11-03T07:16:38.927Z,7.30
2022-11-03T07:19:19.427Z,7.30
2022-11-03T07:21:53.030Z,7.40
2022-11-03T07:24:27.200Z,7.40
2022-11-03T07:27:01.872Z,7.40
2022-11-03T07:29:33.372Z,7.50
2022-11-03T07:32:02.746Z,7.60
2022-11-03T07:34:35.255Z,7.70
2022-11-03T07:37:05.822Z,7.80
2022-11-03T07:39:39.339Z,7.90
2022-11-03T07:42:17.804Z,8.10
2022-11-03T07:44:46.843Z,8.20
2022-11-03T07:47:21.037Z,8.30
2022-11-03T07:49:50.521Z,8.40
2022-11-03T07:52:25.779Z,8.50
2022-11-03T07:54:58.531Z,8.50
2022-11-03T07:57:32.370Z,8.60
2022-11-03T08:00:10.352Z,8.60
2022-11-03T08:02:48.966Z,8.70
2022-11-03T08:07:56.108Z,8.80
2022-11-03T08:10:25.099Z,8.80
2022-11-03T08:12:54.935Z,8.80
2022-11-03T08:15:24.138Z,8.90
2022-11-03T08:17:56.125Z,9.00
2022-11-03T08:20:25.547Z,9.00
2022-11-03T08:25:44.950Z,9.00
2022-11-03T08:28:14.332Z,9.20
2022-11-03T08:30:43.925Z,9.20
2022-11-03T08:33:12.961Z,9.30
2022-11-03T08:35:42.378Z,9.40
2022-11-03T08:38:13.124Z,9.40
2022-11-03T08:40:44.714Z,9.50
2022-11-03T08:43:13.998Z,9.60
2022-11-03T08:45:43.295Z,9.70
2022-11-03T08:48:12.431Z,9.90
2022-11-03T08:50:41.710Z,10.10
2022-11-03T08:53:12.345Z,10.30
2022-11-03T08:55:41.380Z,10.50
2022-11-03T08:58:10.620Z,10.60
2022-11-03T09:00:41.178Z,10.70
2022-11-03T09:03:10.802Z,10.90
2022-11-03T09:05:39.939Z,11.30
2022-11-03T09:11:00.176Z,11.90
2022-11-03T09:13:33.886Z,11.80
2022-11-03T09:16:03.985Z,12.00
2022-11-03T09:18:34.333Z,12.00
2022-11-03T09:21:03.539Z,11.70
2022-11-03T09:23:35.251Z,11.50
2022-11-03T09:26:10.463Z,11.40
2022-11-03T09:28:59.383Z,11.30
2022-11-03T09:31:30.638Z,11.30
2022-11-03T09:37:06.376Z,11.30
2022-11-03T09:39:36.180Z,11.40
2022-11-03T09:42:08.804Z,11.50
2022-11-03T09:44:40.343Z,11.60
2022-11-03T09:47:17.407Z,11.60
2022-11-03T09:49:46.511Z,11.80
2022-11-03T09:52:24.192Z,12.10
2022-11-03T09:54:59.004Z,12.50
2022-11-03T09:57:30.225Z,13.10
2022-11-03T10:00:02.607Z,13.20
2022-11-03T10:02:34.135Z,13.40
2022-11-03T10:05:09.811Z,13.70
2022-11-03T10:07:40.099Z,13.90
2022-11-03T10:10:18.452Z,13.80
2022-11-03T10:12:52.436Z,13.60
2022-11-03T10:15:24.025Z,13.30
2022-11-03T10:17:53.889Z,13.30
2022-11-03T10:20:24.973Z,13.40
2022-11-03T10:22:56.754Z,13.50
2022-11-03T10:25:37.371Z,13.40
2022-11-03T10:28:21.738Z,13.30
2022-11-03T10:31:12.967Z,13.20
2022-11-03T10:33:51.973Z,13.20
2022-11-03T10:36:27.532Z,13.10
2022-11-03T10:38:57.352Z,13.00
2022-11-03T10:41:28.832Z,12.80
2022-11-03T10:44:20.846Z,12.60
2022-11-03T10:47:00.421Z,12.50
2022-11-03T10:49:32.376Z,12.40
2022-11-03T10:52:20.389Z,12.40
2022-11-03T10:54:50.044Z,12.40
2022-11-03T10:57:20.218Z,12.50
2022-11-03T10:59:54.378Z,12.40
2022-11-03T11:02:27.523Z,12.40
2022-11-03T11:05:01.450Z,12.50
2022-11-03T11:07:38.146Z,12.60
2022-11-03T11:10:18.171Z,12.80
2022-11-03T11:13:29.225Z,12.70
2022-11-03T11:16:01.857Z,12.70
2022-11-03T11:19:03.856Z,12.70
2022-11-03T11:22:04.098Z,12.60
2022-11-03T11:24:59.865Z,12.60
2022-11-03T11:28:19.840Z,12.70
2022-11-03T11:31:41.504Z,12.70
2022-11-03T11:34:41.599Z,12.80
2022-11-03T11:37:36.917Z,13.00
2022-11-03T11:40:14.942Z,13.20
2022-11-03T11:43:27.426Z,13.60
2022-11-03T11:46:41.560Z,13.80
2022-11-03T11:49:20.502Z,14.00
2022-11-03T11:51:49.999Z,14.20
2022-11-03T11:54:22.525Z,14.30
2022-11-03T11:56:52.525Z,14.60
2022-11-03T11:59:26.176Z,15.00
2022-11-03T12:01:59.213Z,15.10
2022-11-03T12:04:33.561Z,15.60
2022-11-03T12:07:03.304Z,15.60
2022-11-03T12:09:32.267Z,15.20
2022-11-03T12:12:08.582Z,14.90
2022-11-03T12:14:39.238Z,14.50
2022-11-03T12:17:35.770Z,14.20
2022-11-03T12:20:37.651Z,14.10
2022-11-03T12:23:06.651Z,13.90
2022-11-03T12:25:40.586Z,14.00
2022-11-03T12:28:09.638Z,14.10
2022-11-03T12:30:40.159Z,14.10
2022-11-03T12:33:11.093Z,14.00
2022-11-03T12:35:40.177Z,13.80
2022-11-03T12:38:09.800Z,13.80
2022-11-03T12:40:38.646Z,13.80
2022-11-03T12:43:07.793Z,13.60
2022-11-03T12:45:37.189Z,13.50
2022-11-03T12:48:07.245Z,13.40
2022-11-03T12:50:39.413Z,13.30
2022-11-03T12:53:08.908Z,13.30
2022-11-03T12:55:42.126Z,13.20
2022-11-03T12:58:14.323Z,13.20
2022-11-03T13:00:48.059Z,13.00
2022-11-03T13:03:23.084Z,13.00
2022-11-03T13:05:53.641Z,13.00
2022-11-03T13:08:22.992Z,12.90
2022-11-03T13:10:52.085Z,12.80
2022-11-03T13:13:21.410Z,12.80
2022-11-03T13:15:50.676Z,12.70
2022-11-03T13:18:20.147Z,12.70
2022-11-03T13:20:49.168Z,12.70
2022-11-03T13:23:22.975Z,12.60
2022-11-03T13:25:52.134Z,12.60
2022-11-03T13:28:21.224Z,12.50
2022-11-03T13:30:50.399Z,12.50
2022-11-03T13:33:19.380Z,12.50
2022-11-03T13:35:48.398Z,12.40
2022-11-03T13:38:19.129Z,12.40
2022-11-03T13:40:57.229Z,12.40
2022-11-03T13:43:27.610Z,12.40
2022-11-03T13:45:58.763Z,12.40
2022-11-03T13:51:18.622Z,12.40
2022-11-03T13:59:28.140Z,12.40
2022-11-03T14:04:46.886Z,12.30
2022-11-03T14:07:15.839Z,12.30
2022-11-03T14:09:46.237Z,12.30
2022-11-03T14:12:34.770Z,12.30
2022-11-03T14:15:07.925Z,12.20
2022-11-03T14:17:37.372Z,12.10
2022-11-03T14:20:12.358Z,12.10
2022-11-03T14:22:42.071Z,12.10
2022-11-03T14:25:12.506Z,12.00
2022-11-03T14:27:41.588Z,12.00
2022-11-03T14:30:13.288Z,12.00
2022-11-03T14:32:42.188Z,12.00
2022-11-03T14:35:11.756Z,12.00
2022-11-03T14:37:40.956Z,11.90
2022-11-03T14:40:34.155Z,11.90
2022-11-03T14:43:02.301Z,11.90
2022-11-03T14:45:31.254Z,11.80
2022-11-03T15:40:10.052Z,10.90
2022-11-03T15:42:38.849Z,10.90
2022-11-03T15:45:10.131Z,10.80
2022-11-03T15:47:39.270Z,10.80
2022-11-03T15:50:09.544Z,10.70
2022-11-03T15:52:39.264Z,10.70
2022-11-03T15:55:11.210Z,10.70
2022-11-03T15:57:40.047Z,10.70
2022-11-03T16:00:12.574Z,10.60
2022-11-03T16:02:42.475Z,10.60
2022-11-03T16:05:12.452Z,10.50
2022-11-03T16:07:41.667Z,10.50
2022-11-03T16:10:12.246Z,10.40
2022-11-03T16:12:52.608Z,10.40
2022-11-03T16:15:21.563Z,10.30
2022-11-03T16:17:50.390Z,10.30
2022-11-03T16:20:20.620Z,10.20
2022-11-03T16:22:49.533Z,10.20
2022-11-03T16:25:21.490Z,10.20
2022-11-03T16:27:50.627Z,10.20
2022-11-03T16:30:19.660Z,10.20
2022-11-03T16:32:48.491Z,10.10
2022-11-03T16:35:17.387Z,10.10
2022-11-03T16:37:46.209Z,10.00
2022-11-03T16:40:19.333Z,10.00
2022-11-03T16:42:50.248Z,10.10
2022-11-03T16:45:21.858Z,10.00
2022-11-03T16:47:52.316Z,10.00
2022-11-03T16:50:21.838Z,10.00
2022-11-03T16:52:51.993Z,10.10
2022-11-03T16:55:21.603Z,10.10
2022-11-03T16:57:51.718Z,10.10
2022-11-03T17:00:24.198Z,10.20
2022-11-03T17:02:53.399Z,10.20
2022-11-03T17:05:22.803Z,10.20
2022-11-03T17:07:54.503Z,10.30
2022-11-03T17:10:23.914Z,10.20
2022-11-03T17:12:54.329Z,10.10
2022-11-03T17:15:23.907Z,10.00
2022-11-03T17:17:52.903Z,10.00
2022-11-03T17:20:21.672Z,10.00
2022-11-03T17:22:50.600Z,9.90
2022-11-03T17:25:19.606Z,9.90
2022-11-03T17:27:55.418Z,9.80
2022-11-03T17:30:27.736Z,9.90
2022-11-03T17:32:59.362Z,9.90
2022-11-03T17:35:39.261Z,9.80
2022-11-03T17:38:14.075Z,9.80
2022-11-03T17:40:45.222Z,9.90
2022-11-03T17:43:23.007Z,9.80
2022-11-03T17:45:52.394Z,9.90
2022-11-03T17:48:22.864Z,9.80
2022-11-03T17:50:57.174Z,9.80
2022-11-03T17:53:31.384Z,9.80
2022-11-03T17:56:29.005Z,9.80
2022-11-03T17:58:53.922Z,9.80
2022-11-03T18:01:27.780Z,9.80
2022-11-03T18:03:57.258Z,9.80
2022-11-03T18:06:26.258Z,9.80
2022-11-03T18:08:55.145Z,9.70
2022-11-03T18:11:49.213Z,9.70
2022-11-03T18:14:20.768Z,9.70
2022-11-03T18:16:51.494Z,9.70
2022-11-03T18:19:20.811Z,9.70
2022-11-03T18:21:50.140Z,9.80
2022-11-03T18:24:21.899Z,9.80
2022-11-03T18:26:52.083Z,9.80
2022-11-03T18:29:22.552Z,9.80
2022-11-03T18:31:51.563Z,9.80
2022-11-03T18:34:25.491Z,9.80
2022-11-03T18:36:56.025Z,9.90
2022-11-03T18:39:28.147Z,9.90
2022-11-03T18:41:57.611Z,9.90
2022-11-03T18:44:30.293Z,9.90
2022-11-03T18:47:00.377Z,9.90
2022-11-03T18:49:33.405Z,9.90
2022-11-03T18:52:05.810Z,9.90
2022-11-03T18:54:36.330Z,9.90
2022-11-03T18:57:05.504Z,9.80
2022-11-03T18:59:40.576Z,9.80
2022-11-03T19:02:19.214Z,9.70
2022-11-03T19:04:49.064Z,9.60
2022-11-03T19:07:26.423Z,9.60
2022-11-03T19:09:55.283Z,9.50
2022-11-03T19:12:24.243Z,9.50
2022-11-03T19:14:58.057Z,9.60
2022-11-03T19:17:27.445Z,9.50
2022-11-03T19:19:56.810Z,9.60
2022-11-03T19:22:26.518Z,9.60
2022-11-03T19:24:55.348Z,9.60
2022-11-03T19:27:27.793Z,9.60
2022-11-03T19:30:00.643Z,9.50
2022-11-03T19:32:39.842Z,9.50
2022-11-03T19:35:18.418Z,9.40
2022-11-03T19:37:49.411Z,9.40
2022-11-03T19:40:21.507Z,9.40
2022-11-03T19:42:49.303Z,9.50
2022-11-03T19:45:23.702Z,9.40
2022-11-03T19:50:49.931Z,9.40
2022-11-03T19:53:24.209Z,9.40
2022-11-03T19:55:53.849Z,9.40
2022-11-03T19:58:24.997Z,9.30
2022-11-03T20:00:56.325Z,9.30
2022-11-03T20:03:25.751Z,9.30
2022-11-03T20:05:58.164Z,9.30
2022-11-03T20:08:28.742Z,9.30
2022-11-03T20:10:57.477Z,9.30
2022-11-03T20:13:31.429Z,9.30
2022-11-03T20:16:01.851Z,9.30
2022-11-03T20:18:31.021Z,9.20
2022-11-03T20:21:00.509Z,9.30
2022-11-03T20:23:32.448Z,9.30
2022-11-03T20:26:04.476Z,9.40
2022-11-03T20:28:38.440Z,9.40
2022-11-03T20:31:08.854Z,9.30
2022-11-03T20:33:37.975Z,9.30
2022-11-03T20:36:07.853Z,9.30
2022-11-03T20:38:38.401Z,9.20
2022-11-03T20:41:16.477Z,9.20
2022-11-03T20:43:48.477Z,9.10
2022-11-03T20:46:29.191Z,9.10
2022-11-03T20:48:58.982Z,9.10
2022-11-03T20:51:33.943Z,9.00
2022-11-03T20:54:06.182Z,9.00
2022-11-03T20:56:35.686Z,8.90
2022-11-03T20:59:04.580Z,8.90
2022-11-03T21:01:36.244Z,8.90
2022-11-03T21:04:09.809Z,8.90
2022-11-03T21:06:39.010Z,8.90
2022-11-03T21:09:13.207Z,8.90
2022-11-03T21:11:43.579Z,8.80
2022-11-03T21:14:20.657Z,8.90
2022-11-03T21:17:08.297Z,8.90
2022-11-03T21:19:55.129Z,8.90
2022-11-03T21:25:17.769Z,8.90
2022-11-03T21:27:47.670Z,8.90
2022-11-03T21:30:18.591Z,8.90
2022-11-03T21:32:49.120Z,8.90
2022-11-03T21:35:20.567Z,9.00
2022-11-03T21:37:49.585Z,9.00
2022-11-03T21:40:19.171Z,9.00
2022-11-03T21:43:05.560Z,9.10
2022-11-03T21:45:34.797Z,9.00
2022-11-03T21:48:23.166Z,9.10
2022-11-03T21:50:52.345Z,9.20
2022-11-03T21:53:21.206Z,9.30
2022-11-03T21:55:50.465Z,9.30
2022-11-03T21:58:19.429Z,9.30
2022-11-03T22:00:48.397Z,9.40
2022-11-03T22:03:18.753Z,9.30
2022-11-03T22:05:47.605Z,9.40
2022-11-03T22:08:16.372Z,9.40
2022-11-03T22:10:45.216Z,9.40
2022-11-03T22:13:14.074Z,9.40
2022-11-03T22:16:00.295Z,9.50
2022-11-03T22:18:30.544Z,9.50
2022-11-03T22:21:17.322Z,9.50
2022-11-03T22:24:09.052Z,9.50
2022-11-03T22:26:55.437Z,9.50
2022-11-03T22:29:42.026Z,9.50
2022-11-03T22:32:15.958Z,9.60
2022-11-03T22:35:05.480Z,9.50
2022-11-03T22:40:19.587Z,9.40
2022-11-03T22:43:06.218Z,9.40
2022-11-03T22:45:54.720Z,9.40
2022-11-03T22:48:26.337Z,9.50
2022-11-03T22:51:05.363Z,9.40
2022-11-03T22:53:54.281Z,9.40
2022-11-03T22:56:25.705Z,9.40
2022-11-03T22:58:54.825Z,9.40
2022-11-03T23:01:26.910Z,9.30
2022-11-03T23:03:56.519Z,9.30
2022-11-03T23:06:29.911Z,9.30
2022-11-03T23:08:59.293Z,9.40
2022-11-03T23:11:32.611Z,9.30
2022-11-03T23:14:04.679Z,9.30
2022-11-03T23:16:36.932Z,9.40
2022-11-03T23:19:25.406Z,9.30
2022-11-03T23:21:56.396Z,9.30
2022-11-03T23:24:45.362Z,9.30
2022-11-03T23:27:15.734Z,9.30
2022-11-03T23:29:44.503Z,9.40
2022-11-03T23:32:13.709Z,9.30
2022-11-03T23:34:42.547Z,9.30
2022-11-03T23:37:12.838Z,9.40
2022-11-03T23:39:41.711Z,9.40
2022-11-03T23:42:10.774Z,9.40
2022-11-03T23:44:56.839Z,9.30
2022-11-03T23:47:43.151Z,9.30
2022-11-03T23:50:11.896Z,9.30
2022-11-03T23:52:42.216Z,9.30
2022-11-03T23:55:11.404Z,9.30
2022-11-03T23:57:57.830Z,9.40
